Time;durP1;ratioP1;P1;durP2;ratioP2;P2;SDS_P1;SDS_P2;PMS_P1;PMS_P2;Temp;Humidity;BMP_temperature;BMP_pressure;BME280_temperature;BME280_humidity;BME280_pressure;Samples;Min_cycle;Max_cycle;Signal;HPM_P1;HPM_P2
2022/11/17 00:01:28;;;;;;;10.65;1.67;;;;;;;11.71;68.31;98409.88;4371815;32;34295;-82
2022/11/17 00:03:56;;;;;;;1.87;1.20;;;;;;;11.84;68.22;98418.66;4359535;32;34392;-83
2022/11/17 00:06:24;;;;;;;1.58;1.48;;;;;;;11.81;68.00;98418.84;4361893;32;32607;-83
2022/11/17 00:08:51;;;;;;;1.50;1.37;;;;;;;11.87;68.13;98420.22;4385091;32;35476;-83
2022/11/17 00:11:19;;;;;;;2.55;1.85;;;;;;;11.86;67.81;98427.31;4358030;32;33633;-83
2022/11/17 00:16:33;;;;;;;4.90;2.20;;;;;;;12.03;67.53;98423.50;4371019;32;35104;-83
2022/11/17 00:21:47;;;;;;;2.53;2.33;;;;;;;12.09;67.03;98411.62;4373354;32;34289;-83
2022/11/17 00:24:15;;;;;;;1.75;1.65;;;;;;;11.96;67.74;98412.50;4380808;32;34019;-84
2022/11/17 00:27:01;;;;;;;6.37;2.70;;;;;;;11.81;68.09;98408.25;4382422;32;34818;-85
2022/11/17 00:29:30;;;;;;;4.93;2.97;;;;;;;11.61;68.18;98406.19;4386626;32;34018;-85
2022/11/17 00:34:44;;;;;;;2.30;1.87;;;;;;;12.02;66.93;98417.34;4376347;32;33858;-86
2022/11/17 00:37:13;;;;;;;3.70;2.70;;;;;;;11.93;67.58;98417.16;4369506;32;33925;-86
2022/11/17 00:39:41;;;;;;;3.72;1.55;;;;;;;12.26;66.37;98411.25;4384836;32;34005;-85
2022/11/17 00:42:09;;;;;;;1.23;1.17;;;;;;;12.35;65.72;98407.94;4372366;32;32991;-86
2022/11/17 00:44:37;;;;;;;2.20;1.92;;;;;;;12.06;66.68;98410.06;4371326;32;32943;-86
2022/11/17 00:47:04;;;;;;;2.10;1.73;;;;;;;11.77;67.99;98412.06;4359909;32;32829;-85
2022/11/17 00:49:32;;;;;;;2.90;2.70;;;;;;;11.79;68.08;98418.13;4384507;32;32553;-85
2022/11/17 00:52:00;;;;;;;1.02;0.98;;;;;;;11.87;68.01;98407.87;4369401;32;33692;-85
2022/11/17 00:54:28;;;;;;;9.18;3.20;;;;;;;11.98;67.75;98405.31;4384354;32;33037;-85
2022/11/17 00:56:55;;;;;;;2.30;2.10;;;;;;;12.06;67.33;98404.75;4381280;32;34674;-85
2022/11/17 00:59:23;;;;;;;6.07;3.47;;;;;;;11.94;67.89;98406.47;4379538;32;32543;-85
2022/11/17 01:01:51;;;;;;;9.38;3.28;;;;;;;11.86;67.98;98406.16;4371366;32;33821;-85
2022/11/17 01:04:19;;;;;;;1.87;1.70;;;;;;;12.11;67.11;98399.13;4384841;32;34148;-85
2022/11/17 01:06:48;;;;;;;0.80;0.80;;;;;;;12.12;67.42;98393.72;4372495;32;34195;-84
2022/11/17 01:09:18;;;;;;;1.75;1.65;;;;;;;12.31;66.18;98395.88;4358462;32;34052;-86
2022/11/17 01:11:48;;;;;;;5.47;3.37;;;;;;;12.41;65.12;98381.00;4364441;32;32671;-86
2022/11/17 01:14:19;;;;;;;3.08;2.78;;;;;;;12.10;66.55;98376.25;4382325;32;32234;-86
2022/11/17 01:16:46;;;;;;;3.55;1.42;;;;;;;12.26;66.30;98387.44;4369927;32;33207;-86
2022/11/17 01:19:15;;;;;;;1.17;1.17;;;;;;;12.25;65.92;98375.16;4382536;32;33330;-86
2022/11/17 01:21:43;;;;;;;2.08;1.90;;;;;;;12.20;66.24;98377.28;4370361;32;34455;-85
2022/11/17 01:24:11;;;;;;;4.15;1.90;;;;;;;12.10;66.95;98366.50;4381840;32;32232;-85
2022/11/17 01:26:40;;;;;;;1.35;1.30;;;;;;;12.13;66.68;98365.47;4371131;32;33893;-86
2022/11/17 01:29:09;;;;;;;1.65;0.98;;;;;;;12.10;67.06;98363.88;4384167;32;33470;-85
2022/11/17 01:31:39;;;;;;;3.33;3.12;;;;;;;11.98;67.25;98372.72;4385226;32;34500;-86
2022/11/17 01:34:07;;;;;;;2.60;2.45;;;;;;;11.93;67.21;98369.56;4357135;32;32410;-85
2022/11/17 01:39:25;;;;;;;1.33;1.27;;;;;;;11.92;67.07;98374.00;4369400;32;33912;-85
2022/11/17 01:41:53;;;;;;;4.65;3.05;;;;;;;11.93;66.92;98364.25;4380951;32;33503;-85
2022/11/17 01:44:48;;;;;;;1.65;1.55;;;;;;;11.90;67.04;98370.59;4371691;32;33326;-86
2022/11/17 01:47:30;;;;;;;2.78;2.62;;;;;;;11.93;66.75;98370.41;4386294;32;33041;-84
2022/11/17 01:50:16;;;;;;;0.95;0.93;;;;;;;12.17;65.95;98357.19;4373325;32;33624;-84
2022/11/17 01:52:46;;;;;;;0.85;0.85;;;;;;;12.09;66.03;98366.62;4384779;32;33250;-84
2022/11/17 01:55:13;;;;;;;5.30;3.17;;;;;;;11.93;66.53;98374.84;4371776;32;33537;-84
2022/11/17 01:57:45;;;;;;;1.70;1.60;;;;;;;11.94;66.98;98382.66;4361331;32;33179;-83
2022/11/17 02:00:14;;;;;;;9.43;2.97;;;;;;;12.00;66.60;98382.22;4354071;32;34586;-84
2022/11/17 02:02:42;;;;;;;3.15;2.85;;;;;;;11.73;67.50;98386.81;4378142;32;33071;-83
2022/11/17 02:05:35;;;;;;;2.72;2.53;;;;;;;11.80;67.23;98388.06;4367287;32;33510;-83
2022/11/17 02:08:05;;;;;;;1.90;1.25;;;;;;;11.82;67.04;98383.56;4371015;32;33644;-83
2022/11/17 02:10:34;;;;;;;2.70;1.40;;;;;;;11.69;67.50;98385.34;4372754;32;33229;-82
2022/11/17 02:13:02;;;;;;;4.07;2.50;;;;;;;11.43;67.92;98390.63;4382740;32;32925;-83
2022/11/17 02:15:30;;;;;;;3.53;2.70;;;;;;;11.61;67.60;98396.44;4379891;32;31979;-83
2022/11/17 02:17:59;;;;;;;3.53;2.53;;;;;;;11.46;67.81;98395.72;4357489;32;33111;-82
2022/11/17 02:20:50;;;;;;;0.93;0.93;;;;;;;11.52;67.16;98387.34;4370470;32;32866;-82
2022/11/17 02:23:49;;;;;;;3.53;2.53;;;;;;;11.07;69.15;98377.34;4382902;32;33693;-83
2022/11/17 02:26:23;;;;;;;2.25;1.95;;;;;;;11.17;68.86;98376.59;4367464;32;33354;-87
2022/11/17 02:29:09;;;;;;;2.22;2.10;;;;;;;11.00;69.28;98375.09;4371190;32;34656;-88
2022/11/17 02:31:45;;;;;;;3.12;1.87;;;;;;;11.20;68.59;98364.97;4382823;32;33946;-88
2022/11/17 02:34:39;;;;;;;0.93;0.90;;;;;;;11.14;68.77;98366.25;4363378;32;32822;-87
2022/11/17 02:37:17;;;;;;;2.30;2.05;;;;;;;11.26;68.40;98364.56;4364260;32;32588;-87
2022/11/17 02:39:51;;;;;;;4.20;1.33;;;;;;;11.25;68.53;98352.28;4376550;32;33386;-86
2022/11/17 02:45:37;;;;;;;3.40;2.72;;;;;;;11.31;68.05;98351.88;4365708;32;34566;-87
2022/11/17 02:48:11;;;;;;;3.55;3.30;;;;;;;11.51;67.11;98350.47;4383993;32;33232;-90
2022/11/17 02:51:04;;;;;;;1.65;1.55;;;;;;;11.43;66.87;98345.72;4413392;32;32492;-91
2022/11/17 02:53:32;;;;;;;4.53;2.53;;;;;;;11.06;68.67;98351.84;4396602;32;33023;-90
2022/11/17 02:56:02;;;;;;;3.08;1.95;;;;;;;11.17;68.35;98363.41;4392727;32;33105;-91
2022/11/17 02:58:31;;;;;;;3.35;2.67;;;;;;;10.95;68.97;98371.94;4397220;32;33636;-90
2022/11/17 03:01:23;;;;;;;1.67;1.58;;;;;;;10.86;69.15;98359.34;4402720;32;32789;-91
2022/11/17 03:04:15;;;;;;;3.43;3.23;;;;;;;10.96;69.04;98349.84;4407170;32;33674;-91
2022/11/17 03:06:59;;;;;;;9.75;3.40;;;;;;;11.12;68.18;98346.19;4407060;32;32727;-91
2022/11/17 03:09:43;;;;;;;1.27;1.17;;;;;;;11.09;67.88;98335.81;4388252;32;31833;-91
2022/11/17 03:12:15;;;;;;;2.00;1.30;;;;;;;11.20;67.71;98334.13;4378606;32;33161;-92
2022/11/17 03:15:09;;;;;;;4.70;1.70;;;;;;;11.12;67.83;98340.91;4376290;32;33065;-91
2022/11/17 03:18:07;;;;;;;2.42;2.22;;;;;;;11.47;66.30;98331.34;4375470;32;33523;-93
2022/11/17 03:21:06;;;;;;;2.20;0.88;;;;;;;11.16;67.44;98331.81;4391786;32;31456;-92
2022/11/17 03:23:51;;;;;;;2.72;2.53;;;;;;;11.08;67.82;98334.13;4385526;32;32739;-91
2022/11/17 03:26:38;;;;;;;3.05;2.85;;;;;;;11.14;67.94;98323.13;4385357;32;34016;-89
2022/11/17 03:29:10;;;;;;;3.08;0.85;;;;;;;11.15;67.53;98330.09;4389862;32;34984;-89
2022/11/17 03:31:38;;;;;;;3.80;3.28;;;;;;;11.47;66.67;98315.47;4398266;32;32501;-89
2022/11/17 03:34:10;;;;;;;2.95;2.55;;;;;;;11.08;67.93;98323.56;4384481;32;33691;-89
2022/11/17 03:36:41;;;;;;;2.65;2.47;;;;;;;11.03;68.33;98330.00;4383783;32;32667;-90
2022/11/17 03:39:15;;;;;;;0.95;0.95;;;;;;;11.08;68.64;98334.97;4372054;32;33185;-90
2022/11/17 03:41:45;;;;;;;2.30;1.62;;;;;;;11.28;67.83;98342.34;4384005;32;32736;-87
2022/11/17 03:44:14;;;;;;;3.55;3.35;;;;;;;11.00;68.96;98358.41;4371489;32;32879;-88
2022/11/17 03:46:43;;;;;;;2.60;2.40;;;;;;;11.08;68.64;98365.81;4369800;32;34295;-88
2022/11/17 03:49:24;;;;;;;9.60;2.72;;;;;;;10.82;69.24;98378.97;4394195;32;32866;-88
2022/11/17 03:51:52;;;;;;;4.20;3.78;;;;;;;11.11;68.28;98382.31;4378870;32;32319;-89
2022/11/17 03:54:19;;;;;;;0.75;0.75;;;;;;;11.06;68.26;98380.91;4384409;32;34136;-90
2022/11/17 03:56:54;;;;;;;2.22;1.60;;;;;;;11.27;67.35;98387.38;4370570;32;33394;-90
2022/11/17 03:59:34;;;;;;;1.98;1.87;;;;;;;11.42;66.97;98388.97;4371053;32;32839;-90
2022/11/17 04:02:02;;;;;;;1.83;1.73;;;;;;;11.45;66.67;98388.75;4371838;32;33406;-90
2022/11/17 04:05:04;;;;;;;2.87;2.55;;;;;;;11.58;66.32;98395.81;4397444;32;34007;-91
2022/11/17 04:07:40;;;;;;;4.97;2.03;;;;;;;11.83;64.99;98385.25;4386990;32;32703;-90
2022/11/17 04:10:28;;;;;;;1.73;1.62;;;;;;;11.83;64.68;98385.25;4373354;32;34120;-90
2022/11/17 04:15:57;;;;;;;2.10;1.98;;;;;;;11.32;66.82;98385.25;4383481;32;33960;-83
2022/11/17 04:18:25;;;;;;;3.15;2.50;;;;;;;11.23;66.89;98378.81;4383889;32;33489;-83
2022/11/17 04:20:55;;;;;;;0.75;0.75;;;;;;;11.32;66.90;98377.34;4382462;32;34174;-83
2022/11/17 04:23:24;;;;;;;0.60;0.60;;;;;;;11.69;65.60;98372.97;4380276;32;33594;-87
2022/11/17 04:28:44;;;;;;;5.22;2.05;;;;;;;11.33;66.80;98383.47;4367527;32;34183;-86
2022/11/17 04:31:16;;;;;;;1.73;1.62;;;;;;;11.27;67.10;98388.22;4362162;32;35395;-86
2022/11/17 04:33:45;;;;;;;;;;;;;;;11.35;66.99;98384.22;4366930;32;33179;-88
2022/11/17 04:36:15;;;;;;;1.33;1.30;;;;;;;11.70;65.57;98376.44;4354906;32;34386;-88
2022/11/17 04:38:44;;;;;;;2.58;2.37;;;;;;;11.45;66.07;98379.97;4369025;32;33029;-87
2022/11/17 04:44:01;;;;;;;5.47;1.55;;;;;;;11.29;67.04;98385.47;4358297;32;35298;-87
2022/11/17 04:46:30;;;;;;;3.08;2.80;;;;;;;11.57;66.10;98384.41;4357035;32;32980;-87
2022/11/17 04:48:59;;;;;;;1.33;1.23;;;;;;;11.09;67.33;98386.00;4378744;32;33812;-87
2022/11/17 04:51:28;;;;;;;1.80;1.35;;;;;;;11.21;67.32;98386.00;4362908;32;32292;-85
2022/11/17 04:53:57;;;;;;;2.67;2.47;;;;;;;11.25;67.03;98387.50;4361820;32;32839;-85
2022/11/17 04:56:25;;;;;;;2.12;2.00;;;;;;;11.19;67.19;98384.41;4362935;32;32514;-85
2022/11/17 04:58:53;;;;;;;2.45;2.33;;;;;;;11.45;66.28;98385.28;4381266;32;33129;-85
2022/11/17 05:01:22;;;;;;;1.25;1.00;;;;;;;11.10;66.63;98387.69;4368931;32;34507;-85
2022/11/17 05:03:52;;;;;;;1.00;0.98;;;;;;;11.08;66.68;98394.88;4387700;32;33393;-85
2022/11/17 05:06:22;;;;;;;2.35;2.15;;;;;;;11.08;66.48;98405.44;4349365;32;33344;-85
2022/11/17 05:08:54;;;;;;;2.50;2.15;;;;;;;10.77;67.67;98404.84;4369132;32;34781;-85
2022/11/17 05:14:11;;;;;;;1.95;1.85;;;;;;;10.82;67.44;98421.22;4378061;32;33624;-86
2022/11/17 05:19:32;;;;;;;4.68;2.33;;;;;;;10.88;67.40;98423.47;4360875;32;33431;-84
2022/11/17 05:22:00;;;;;;;4.35;1.45;;;;;;;10.92;67.12;98424.97;4375890;32;34041;-84
2022/11/17 05:24:28;;;;;;;3.42;3.10;;;;;;;10.92;67.36;98418.81;4382811;32;34003;-83
2022/11/17 05:26:55;;;;;;;7.50;5.65;;;;;;;11.19;66.53;98418.75;4381893;32;33140;-82
2022/11/17 05:29:23;;;;;;;2.45;2.25;;;;;;;11.16;66.54;98411.06;4364643;32;33634;-82
2022/11/17 05:31:50;;;;;;;2.05;1.95;;;;;;;11.18;66.50;98415.28;4394354;32;34109;-83
2022/11/17 05:34:19;;;;;;;3.05;2.75;;;;;;;10.99;67.27;98409.56;4394938;32;32761;-83
2022/11/17 05:36:46;;;;;;;4.85;3.72;;;;;;;11.12;66.94;98410.41;4382181;32;32844;-84
2022/11/17 05:39:15;;;;;;;1.67;1.58;;;;;;;11.22;66.52;98413.28;4370147;32;33088;-84
2022/11/17 05:41:42;;;;;;;3.10;2.35;;;;;;;11.14;66.94;98399.75;4382076;32;34329;-82
2022/11/17 05:44:10;;;;;;;5.65;3.40;;;;;;;11.25;66.57;98397.19;4382400;32;33398;-83
2022/11/17 05:46:37;;;;;;;2.67;2.58;;;;;;;10.90;67.14;98403.09;4383049;32;34086;-83
2022/11/17 05:49:05;;;;;;;1.17;1.05;;;;;;;10.86;67.55;98411.31;4384382;32;33695;-83
2022/11/17 05:51:33;;;;;;;1.42;1.33;;;;;;;11.00;67.32;98417.38;4384356;32;33158;-84
2022/11/17 05:54:00;;;;;;;3.62;3.37;;;;;;;11.06;66.88;98428.47;4395423;32;32299;-84
2022/11/17 05:56:28;;;;;;;1.50;1.40;;;;;;;10.95;67.45;98423.91;4394814;32;33508;-84
2022/11/17 05:59:02;;;;;;;1.75;1.65;;;;;;;11.04;66.92;98423.28;4383043;32;33986;-84
2022/11/17 06:01:30;;;;;;;1.60;1.50;;;;;;;11.19;66.12;98421.41;4380314;32;33849;-83
2022/11/17 06:04:05;;;;;;;2.72;2.53;;;;;;;11.02;66.85;98436.59;4378679;32;32257;-84
2022/11/17 06:06:35;;;;;;;1.45;1.35;;;;;;;10.98;66.70;98440.41;4389464;32;34523;-83
2022/11/17 06:09:03;;;;;;;2.97;2.72;;;;;;;10.92;67.00;98437.31;4381485;32;34653;-83
2022/11/17 06:11:31;;;;;;;5.15;3.62;;;;;;;11.19;66.19;98432.81;4365969;32;33671;-83
2022/11/17 06:13:58;;;;;;;1.25;1.15;;;;;;;11.05;66.36;98439.97;4366601;32;32666;-84
2022/11/17 06:16:29;;;;;;;2.78;2.55;;;;;;;11.05;66.49;98435.53;4376460;32;33911;-84
2022/11/17 06:19:14;;;;;;;2.55;2.25;;;;;;;11.07;66.72;98438.09;4391515;32;33016;-84
2022/11/17 06:21:42;;;;;;;1.50;1.40;;;;;;;11.01;66.60;98431.41;4367552;32;33794;-84
2022/11/17 06:24:31;;;;;;;2.10;1.87;;;;;;;11.06;66.40;98439.03;4364734;32;32703;-84
2022/11/17 06:27:00;;;;;;;1.12;1.02;;;;;;;10.55;67.94;98438.91;4377836;32;32704;-84
2022/11/17 06:29:27;;;;;;;1.00;1.00;;;;;;;10.62;67.81;98443.66;4380206;32;33896;-87
2022/11/17 06:31:56;;;;;;;1.00;1.00;;;;;;;10.83;66.93;98433.50;4385451;32;33009;-87
2022/11/17 06:34:25;;;;;;;3.42;2.42;;;;;;;10.85;67.24;98439.53;4387568;32;32273;-87
2022/11/17 06:36:54;;;;;;;2.60;2.40;;;;;;;10.79;67.44;98439.94;4380168;32;33856;-87
2022/11/17 06:39:22;;;;;;;2.22;2.03;;;;;;;10.74;67.47;98436.75;4378815;32;34698;-87
2022/11/17 06:41:50;;;;;;;1.40;1.35;;;;;;;10.78;67.38;98438.25;4391698;32;33899;-89
2022/11/17 06:44:17;;;;;;;1.45;1.20;;;;;;;10.77;67.26;98441.81;4378932;32;32906;-89
2022/11/17 06:46:44;;;;;;;3.15;2.95;;;;;;;10.86;67.00;98457.06;4367658;32;33509;-89
2022/11/17 06:49:17;;;;;;;9.45;3.15;;;;;;;10.86;67.01;98451.78;4368717;32;32888;-89
2022/11/17 06:51:45;;;;;;;1.87;1.77;;;;;;;11.02;65.96;98460.38;4370886;32;32604;-89
2022/11/17 06:54:13;;;;;;;0.82;0.82;;;;;;;10.94;66.20;98465.31;4381410;32;34707;-89
2022/11/17 06:56:44;;;;;;;2.05;1.55;;;;;;;11.10;65.42;98465.12;4383092;32;32616;-89
2022/11/17 06:59:14;;;;;;;3.47;0.93;;;;;;;10.96;65.67;98468.69;4391573;32;33765;-89
2022/11/17 07:01:42;;;;;;;3.80;2.97;;;;;;;10.89;66.01;98467.41;4393920;32;33811;-89
2022/11/17 07:04:10;;;;;;;3.65;2.10;;;;;;;10.98;65.78;98471.25;4379491;32;32772;-89
2022/11/17 07:06:38;;;;;;;2.83;2.10;;;;;;;11.02;66.11;98472.75;4369005;32;34027;-89
2022/11/17 07:09:05;;;;;;;3.35;1.85;;;;;;;10.89;66.63;98472.69;4369109;32;33031;-89
2022/11/17 07:11:35;;;;;;;6.93;3.50;;;;;;;10.90;66.85;98474.38;4396101;32;33050;-89
2022/11/17 07:14:02;;;;;;;1.60;1.50;;;;;;;11.00;66.53;98474.63;4380776;32;32793;-88
2022/11/17 07:16:31;;;;;;;0.55;0.55;;;;;;;10.84;67.70;98480.09;4384134;32;33756;-88
2022/11/17 07:19:02;;;;;;;2.28;2.08;;;;;;;10.99;67.48;98473.78;4367608;32;34064;-89
2022/11/17 07:21:30;;;;;;;0.88;0.88;;;;;;;11.02;67.66;98463.03;4367827;32;32598;-89
2022/11/17 07:23:58;;;;;;;3.65;1.77;;;;;;;11.22;67.12;98463.47;4360061;32;32151;-89
2022/11/17 07:26:26;;;;;;;2.40;2.20;;;;;;;11.35;67.19;98469.63;4391538;32;33059;-89
2022/11/17 07:28:54;;;;;;;2.00;1.90;;;;;;;11.56;66.87;98472.59;4370134;32;32936;-89
2022/11/17 07:31:22;;;;;;;0.30;0.30;;;;;;;11.48;67.06;98470.47;4365162;32;32972;-88
2022/11/17 07:33:52;;;;;;;1.77;1.67;;;;;;;11.62;66.89;98471.31;4380992;32;32220;-90
2022/11/17 07:36:19;;;;;;;1.20;0.88;;;;;;;11.16;67.83;98474.47;4380394;32;34031;-86
2022/11/17 07:38:48;;;;;;;4.53;2.97;;;;;;;10.93;67.58;98479.47;4392553;32;31818;-87
2022/11/17 07:41:16;;;;;;;1.12;1.10;;;;;;;11.39;66.32;98479.00;4379560;32;32944;-87
2022/11/17 07:43:44;;;;;;;1.75;1.65;;;;;;;11.59;65.98;98487.41;4368945;32;33067;-91
2022/11/17 07:46:26;;;;;;;2.40;1.90;;;;;;;11.31;66.89;98493.72;4355516;32;32229;-88
2022/11/17 07:48:54;;;;;;;5.50;3.87;;;;;;;11.27;66.86;98480.72;4356919;32;34793;-86
2022/11/17 07:51:21;;;;;;;5.55;2.72;;;;;;;11.00;67.64;98486.03;4372898;32;33601;-88
2022/11/17 07:53:49;;;;;;;2.28;1.83;;;;;;;11.31;66.98;98494.56;4369413;32;33174;-88
2022/11/17 07:56:17;;;;;;;5.00;1.48;;;;;;;11.60;65.96;98487.28;4357898;32;33629;-88
2022/11/17 07:58:44;;;;;;;1.10;1.08;;;;;;;11.37;66.37;98477.44;4374518;32;34378;-87
2022/11/17 08:01:14;;;;;;;3.08;2.87;;;;;;;11.63;65.75;98473.00;4376380;32;32808;-87
2022/11/17 08:03:42;;;;;;;3.90;2.03;;;;;;;11.71;65.10;98486.53;4362875;32;32228;-86
2022/11/17 08:06:11;;;;;;;2.28;1.33;;;;;;;11.39;66.53;98479.00;4370903;32;32636;-86
2022/11/17 08:08:38;;;;;;;0.43;0.43;;;;;;;11.73;65.86;98469.63;4374330;32;33403;-86
2022/11/17 08:11:09;;;;;;;1.67;1.52;;;;;;;11.86;65.34;98479.38;4356632;32;31175;-86
2022/11/17 08:13:38;;;;;;;1.67;1.08;;;;;;;11.66;65.93;98470.16;4370363;32;32306;-86
2022/11/17 08:16:07;;;;;;;1.27;1.23;;;;;;;11.54;65.89;98471.88;4369701;32;35393;-89
2022/11/17 08:18:35;;;;;;;1.98;1.80;;;;;;;11.67;65.99;98477.97;4366606;32;33355;-86
2022/11/17 08:21:08;;;;;;;2.85;2.58;;;;;;;11.79;65.24;98485.06;4358017;32;33683;-87
2022/11/17 08:23:37;;;;;;;2.97;1.80;;;;;;;11.93;64.87;98483.28;4377036;32;32415;-87
2022/11/17 08:26:07;;;;;;;2.03;1.40;;;;;;;12.00;64.93;98493.31;4368686;32;33840;-87
2022/11/17 08:28:35;;;;;;;1.37;1.27;;;;;;;12.13;64.84;98487.19;4372023;32;33221;-87
2022/11/17 08:31:04;;;;;;;2.60;2.25;;;;;;;12.00;64.80;98488.03;4372406;32;34781;-87
2022/11/17 08:33:33;;;;;;;0.30;0.30;;;;;;;11.88;65.16;98488.06;4376606;32;32665;-86
2022/11/17 08:36:01;;;;;;;2.65;2.42;;;;;;;12.04;64.58;98500.09;4357760;32;33855;-85
2022/11/17 08:38:30;;;;;;;5.50;1.85;;;;;;;11.89;65.07;98498.53;4373187;32;33797;-89
2022/11/17 08:41:01;;;;;;;2.15;1.62;;;;;;;12.35;64.60;98486.50;4364994;32;33969;-87
2022/11/17 08:43:29;;;;;;;1.98;1.87;;;;;;;12.09;64.90;98499.78;4372176;32;30427;-90
2022/11/17 08:46:12;;;;;;;1.60;1.50;;;;;;;12.12;64.43;98506.66;4383141;32;33564;-91
2022/11/17 08:48:39;;;;;;;0.85;0.68;;;;;;;12.40;63.97;98503.75;4369933;32;32927;-90
2022/11/17 08:51:10;;;;;;;2.45;2.20;;;;;;;12.21;64.02;98513.94;4361864;32;33069;-88
2022/11/17 08:53:38;;;;;;;2.12;1.98;;;;;;;12.23;63.54;98517.31;4353221;32;32619;-87
2022/11/17 08:56:09;;;;;;;1.75;1.65;;;;;;;12.25;63.58;98510.13;4372815;32;32896;-86
2022/11/17 08:58:39;;;;;;;3.47;2.72;;;;;;;12.00;63.85;98517.13;4362458;32;34012;-86
2022/11/17 09:01:09;;;;;;;2.75;2.55;;;;;;;12.04;64.30;98515.13;4375438;32;32433;-86
2022/11/17 09:03:36;;;;;;;0.68;0.68;;;;;;;11.94;64.72;98509.63;4379229;32;32200;-86
2022/11/17 09:06:05;;;;;;;2.90;2.33;;;;;;;12.34;63.05;98506.81;4352739;32;34604;-86
2022/11/17 09:08:32;;;;;;;0.90;0.90;;;;;;;12.18;63.24;98507.06;4378264;32;33086;-85
2022/11/17 09:11:16;;;;;;;0.80;0.80;;;;;;;12.20;62.73;98515.75;4370189;32;33016;-86
2022/11/17 09:13:45;;;;;;;1.50;1.40;;;;;;;11.97;63.04;98513.88;4365420;32;33087;-86
2022/11/17 09:16:14;;;;;;;1.15;1.15;;;;;;;12.03;63.36;98524.03;4397297;32;33533;-86
2022/11/17 09:18:42;;;;;;;2.15;1.23;;;;;;;12.21;62.90;98532.47;4371918;32;33526;-86
2022/11/17 09:21:14;;;;;;;2.05;1.90;;;;;;;11.92;63.81;98532.72;4385182;32;34688;-86
2022/11/17 09:23:41;;;;;;;1.30;0.82;;;;;;;12.14;64.13;98528.56;4384454;32;33798;-86
2022/11/17 09:26:13;;;;;;;0.70;0.70;;;;;;;12.40;63.24;98532.84;4365495;32;32739;-85
2022/11/17 09:28:42;;;;;;;2.35;1.60;;;;;;;12.29;63.38;98532.75;4369481;32;33985;-86
2022/11/17 09:31:21;;;;;;;1.77;1.05;;;;;;;12.07;63.87;98529.94;4367214;32;35296;-86
2022/11/17 09:33:49;;;;;;;0.90;0.90;;;;;;;12.28;63.96;98529.28;4372389;32;31782;-85
2022/11/17 09:36:17;;;;;;;1.92;1.77;;;;;;;12.67;62.87;98524.72;4373044;32;34214;-85
2022/11/17 09:38:45;;;;;;;2.00;1.90;;;;;;;12.43;63.88;98524.69;4390242;32;33817;-86
2022/11/17 09:41:31;;;;;;;0.62;0.62;;;;;;;12.51;63.77;98524.97;4383254;32;34429;-86
2022/11/17 09:44:47;;;;;;;1.65;1.40;;;;;;;12.98;62.44;98522.50;4367441;32;33389;-85
2022/11/17 09:47:28;;;;;;;1.23;1.15;;;;;;;12.93;61.84;98509.56;4343919;32;33195;-85
2022/11/17 09:50:23;;;;;;;0.68;0.68;;;;;;;12.79;62.82;98505.28;4354400;32;34516;-85
2022/11/17 09:53:06;;;;;;;1.35;1.30;;;;;;;12.69;63.22;98508.72;4364461;32;33120;-85
2022/11/17 09:55:42;;;;;;;1.73;1.62;;;;;;;12.77;63.06;98504.56;4350879;32;32308;-85
2022/11/17 09:58:32;;;;;;;5.78;3.17;;;;;;;12.78;63.41;98502.75;4352855;32;33867;-85
2022/11/17 10:01:03;;;;;;;8.35;2.22;;;;;;;12.80;63.54;98503.47;4362319;32;34583;-85
2022/11/17 10:03:33;;;;;;;1.37;1.27;;;;;;;13.19;61.06;98493.53;4352275;32;33825;-85
2022/11/17 10:06:14;;;;;;;0.75;0.75;;;;;;;12.91;62.30;98494.75;4346222;32;33317;-84
2022/11/17 10:08:48;;;;;;;0.82;0.82;;;;;;;12.98;61.73;98490.69;4351613;32;33913;-88
2022/11/17 10:11:33;;;;;;;0.32;0.32;;;;;;;13.15;61.66;98492.06;4352915;32;33668;-86
2022/11/17 10:14:15;;;;;;;0.30;0.30;;;;;;;13.22;60.46;98498.66;4358312;32;33440;-85
2022/11/17 10:16:57;;;;;;;2.03;1.83;;;;;;;13.38;59.56;98499.16;4359563;32;33219;-85
2022/11/17 10:19:27;;;;;;;0.08;0.08;;;;;;;13.24;60.20;98502.00;4348116;32;34618;-86
2022/11/17 10:22:16;;;;;;;2.70;2.47;;;;;;;13.45;59.29;98495.09;4346837;32;32769;-85
2022/11/17 10:24:54;;;;;;;;;;;;;;;13.56;58.89;98487.16;4356686;32;33947;-85
2022/11/17 10:27:21;;;;;;;0.65;0.65;;;;;;;13.55;59.16;98488.12;4366207;32;32857;-84
2022/11/17 10:30:01;;;;;;;1.37;1.20;;;;;;;13.50;59.45;98498.25;4354209;32;33315;-85
2022/11/17 10:32:47;;;;;;;1.35;1.25;;;;;;;13.43;59.29;98491.69;4366250;32;33446;-86
2022/11/17 10:35:23;;;;;;;2.15;2.05;;;;;;;13.49;59.11;98493.06;4332818;32;33033;-85
2022/11/17 10:37:54;;;;;;;1.05;0.77;;;;;;;13.16;61.04;98494.63;4345282;32;32576;-87
2022/11/17 10:40:25;;;;;;;1.77;1.62;;;;;;;13.10;61.40;98488.91;4351166;32;33570;-89
2022/11/17 10:42:59;;;;;;;0.88;0.88;;;;;;;13.22;60.82;98483.59;4358278;32;33793;-89
2022/11/17 10:45:27;;;;;;;0.93;0.93;;;;;;;13.19;60.55;98498.81;4345538;32;33291;-88
2022/11/17 10:48:24;;;;;;;0.98;0.95;;;;;;;13.57;60.08;98501.25;4360028;32;32351;-89
2022/11/17 10:51:18;;;;;;;2.03;1.08;;;;;;;13.41;60.63;98506.91;4390013;32;33198;-90
2022/11/17 10:54:13;;;;;;;0.52;0.52;;;;;;;13.83;59.24;98499.25;4371271;32;33147;-90
2022/11/17 10:56:53;;;;;;;0.82;0.82;;;;;;;13.84;58.50;98498.28;4381490;32;33058;-90
2022/11/17 10:59:32;;;;;;;1.40;1.30;;;;;;;13.67;59.76;98493.44;4380014;32;33125;-92
2022/11/17 11:02:37;;;;;;;1.42;0.65;;;;;;;13.86;58.41;98493.69;4358957;32;32783;-93
2022/11/17 11:05:20;;;;;;;0.70;0.65;;;;;;;13.84;58.83;98500.94;4365254;32;32762;-85
2022/11/17 11:08:20;;;;;;;0.93;0.93;;;;;;;14.05;58.47;98486.00;4359863;32;33660;-82
2022/11/17 11:10:51;;;;;;;2.05;1.23;;;;;;;14.07;58.57;98477.91;4365519;32;32603;-82
2022/11/17 11:13:38;;;;;;;1.20;1.17;;;;;;;14.29;57.35;98479.69;4363048;32;34496;-84
2022/11/17 11:16:09;;;;;;;4.25;2.20;;;;;;;14.51;56.73;98476.19;4355477;32;35001;-84
2022/11/17 11:18:37;;;;;;;0.28;0.20;;;;;;;13.91;58.72;98475.63;4359309;32;33905;-85
2022/11/17 11:21:31;;;;;;;1.02;0.98;;;;;;;13.91;57.38;98475.63;4365933;32;31885;-84
2022/11/17 11:24:18;;;;;;;0.47;0.47;;;;;;;13.71;58.96;98471.03;4364715;32;34258;-84
2022/11/17 11:26:49;;;;;;;1.62;1.02;;;;;;;13.59;59.45;98488.75;4363710;32;36219;-84
2022/11/17 11:29:44;;;;;;;2.75;0.82;;;;;;;14.09;57.62;98484.78;4365014;32;34097;-84
2022/11/17 11:32:19;;;;;;;1.45;1.35;;;;;;;14.18;56.97;98488.53;4363892;32;34607;-84
2022/11/17 11:35:08;;;;;;;2.37;2.05;;;;;;;13.91;56.83;98494.22;4361004;32;33807;-85
2022/11/17 11:37:54;;;;;;;0.80;0.70;;;;;;;14.01;56.94;98486.38;4356882;32;90925;-85
2022/11/17 11:40:26;;;;;;;0.70;0.70;;;;;;;14.42;55.83;98487.53;4353998;32;33735;-84
2022/11/17 11:42:57;;;;;;;2.53;2.33;;;;;;;14.32;56.59;98485.59;4366770;32;34146;-83
2022/11/17 11:45:52;;;;;;;1.12;1.12;;;;;;;14.01;57.76;98484.56;4365214;32;34330;-84
2022/11/17 11:48:21;;;;;;;2.05;0.93;;;;;;;14.55;55.44;98486.47;4353204;32;34301;-84
2022/11/17 11:51:02;;;;;;;3.10;1.45;;;;;;;14.26;56.85;98485.28;4365269;32;33523;-84
2022/11/17 11:53:39;;;;;;;1.23;1.00;;;;;;;14.56;55.28;98482.81;4360456;32;33050;-85
2022/11/17 11:56:13;;;;;;;0.88;0.57;;;;;;;14.19;57.52;98478.75;4355002;32;33211;-85
2022/11/17 11:59:09;;;;;;;0.82;0.73;;;;;;;14.37;57.09;98487.06;4364562;32;34387;-84
2022/11/17 12:01:52;;;;;;;1.48;1.20;;;;;;;14.79;54.03;98477.47;4352970;32;34194;-84
2022/11/17 12:04:43;;;;;;;;;;;;;;;14.74;54.59;98474.34;4363459;32;33524;-86
2022/11/17 12:07:23;;;;;;;0.60;0.60;;;;;;;14.65;56.12;98481.25;4341347;32;32657;-86
2022/11/17 12:10:13;;;;;;;0.82;0.80;;;;;;;14.61;54.89;98479.78;4346313;32;34611;-86
2022/11/17 12:12:44;;;;;;;0.43;0.43;;;;;;;14.67;54.70;98481.97;4346623;32;32634;-89
2022/11/17 12:15:21;;;;;;;0.30;0.30;;;;;;;14.75;54.99;98481.34;4319990;33;32664;-86
2022/11/17 12:17:59;;;;;;;0.68;0.60;;;;;;;14.94;53.98;98476.19;4349606;32;33886;-91
2022/11/17 12:20:51;;;;;;;1.85;1.50;;;;;;;15.01;55.04;98469.41;4329517;33;32752;-90
2022/11/17 12:23:44;;;;;;;6.12;5.50;;;;;;;15.32;52.77;98466.84;4349151;32;33222;-90
2022/11/17 12:26:42;;;;;;;1.75;1.65;;;;;;;15.13;53.40;98477.31;4349535;32;34007;-91
2022/11/17 12:29:19;;;;;;;2.08;1.92;;;;;;;14.95;54.17;98483.19;4336292;33;31943;-91
2022/11/17 12:31:52;;;;;;;1.25;1.15;;;;;;;14.74;55.19;98484.97;4346601;32;33545;-89
2022/11/17 12:34:31;;;;;;;0.70;0.57;;;;;;;14.83;54.74;98490.38;4335895;33;33280;-91